sensor_id;sensor_type;location;lat;lon;timestamp;P1;durP1;ratioP1;P2;durP2;ratioP2
77061;SDS011;65989;51.686;5.138;2023-07-13T00:00:41;9.70;;;2.40;;
77061;SDS011;65989;51.686;5.138;2023-07-13T00:03:06;8.00;;;2.35;;
77061;SDS011;65989;51.686;5.138;2023-07-13T00:05:31;6.47;;;2.53;;
77061;SDS011;65989;51.686;5.138;2023-07-13T00:07:57;7.13;;;2.17;;
77061;SDS011;65989;51.686;5.138;2023-07-13T00:10:22;11.27;;;2.43;;
77061;SDS011;65989;51.686;5.138;2023-07-13T00:12:47;9.27;;;2.60;;
77061;SDS011;65989;51.686;5.138;2023-07-13T00:15:14;8.33;;;2.37;;
77061;SDS011;65989;51.686;5.138;2023-07-13T00:17:41;8.57;;;2.17;;
77061;SDS011;65989;51.686;5.138;2023-07-13T00:20:07;7.15;;;2.10;;
77061;SDS011;65989;51.686;5.138;2023-07-13T00:22:32;9.57;;;2.30;;
77061;SDS011;65989;51.686;5.138;2023-07-13T00:24:57;7.30;;;2.17;;
77061;SDS011;65989;51.686;5.138;2023-07-13T00:27:23;11.93;;;2.37;;
77061;SDS011;65989;51.686;5.138;2023-07-13T00:29:48;9.27;;;2.42;;
77061;SDS011;65989;51.686;5.138;2023-07-13T00:32:13;10.80;;;2.40;;
77061;SDS011;65989;51.686;5.138;2023-07-13T00:34:39;8.17;;;2.47;;
77061;SDS011;65989;51.686;5.138;2023-07-13T00:37:07;8.13;;;2.40;;
77061;SDS011;65989;51.686;5.138;2023-07-13T00:39:33;11.32;;;2.42;;
77061;SDS011;65989;51.686;5.138;2023-07-13T00:41:59;8.77;;;2.60;;
77061;SDS011;65989;51.686;5.138;2023-07-13T00:44:24;10.75;;;2.72;;
77061;SDS011;65989;51.686;5.138;2023-07-13T00:46:49;12.00;;;2.57;;
77061;SDS011;65989;51.686;5.138;2023-07-13T00:49:16;10.70;;;2.30;;
77061;SDS011;65989;51.686;5.138;2023-07-13T00:54:10;10.17;;;2.60;;
77061;SDS011;65989;51.686;5.138;2023-07-13T00:56:36;12.50;;;2.95;;
77061;SDS011;65989;51.686;5.138;2023-07-13T00:59:02;12.23;;;2.63;;
77061;SDS011;65989;51.686;5.138;2023-07-13T01:01:29;6.53;;;2.50;;
77061;SDS011;65989;51.686;5.138;2023-07-13T01:03:54;10.40;;;2.90;;
77061;SDS011;65989;51.686;5.138;2023-07-13T01:06:19;9.65;;;2.50;;
77061;SDS011;65989;51.686;5.138;2023-07-13T01:08:44;10.27;;;3.00;;
77061;SDS011;65989;51.686;5.138;2023-07-13T01:11:10;12.13;;;3.87;;
77061;SDS011;65989;51.686;5.138;2023-07-13T01:13:35;13.53;;;3.20;;
77061;SDS011;65989;51.686;5.138;2023-07-13T01:16:02;8.07;;;2.30;;
77061;SDS011;65989;51.686;5.138;2023-07-13T01:18:27;8.43;;;2.83;;
77061;SDS011;65989;51.686;5.138;2023-07-13T01:21:00;10.97;;;3.03;;
77061;SDS011;65989;51.686;5.138;2023-07-13T01:23:26;10.27;;;2.58;;
77061;SDS011;65989;51.686;5.138;2023-07-13T01:25:52;9.27;;;2.75;;
77061;SDS011;65989;51.686;5.138;2023-07-13T01:28:17;10.00;;;2.57;;
77061;SDS011;65989;51.686;5.138;2023-07-13T01:30:44;14.10;;;3.47;;
77061;SDS011;65989;51.686;5.138;2023-07-13T01:33:11;11.73;;;2.85;;
77061;SDS011;65989;51.686;5.138;2023-07-13T01:35:37;11.00;;;2.90;;
77061;SDS011;65989;51.686;5.138;2023-07-13T01:38:02;11.27;;;3.00;;
77061;SDS011;65989;51.686;5.138;2023-07-13T01:40:28;14.57;;;3.00;;
77061;SDS011;65989;51.686;5.138;2023-07-13T01:42:53;11.25;;;3.08;;
77061;SDS011;65989;51.686;5.138;2023-07-13T01:45:18;12.00;;;3.03;;
77061;SDS011;65989;51.686;5.138;2023-07-13T01:47:44;12.37;;;3.40;;
77061;SDS011;65989;51.686;5.138;2023-07-13T01:50:09;11.90;;;3.30;;
77061;SDS011;65989;51.686;5.138;2023-07-13T01:52:34;11.17;;;3.13;;
77061;SDS011;65989;51.686;5.138;2023-07-13T01:54:59;11.70;;;3.40;;
77061;SDS011;65989;51.686;5.138;2023-07-13T01:57:25;13.63;;;3.50;;
77061;SDS011;65989;51.686;5.138;2023-07-13T01:59:50;12.53;;;3.30;;
77061;SDS011;65989;51.686;5.138;2023-07-13T02:02:15;9.63;;;3.00;;
77061;SDS011;65989;51.686;5.138;2023-07-13T02:04:40;14.63;;;3.33;;
77061;SDS011;65989;51.686;5.138;2023-07-13T02:07:06;11.13;;;3.30;;
77061;SDS011;65989;51.686;5.138;2023-07-13T02:09:31;18.80;;;3.53;;
77061;SDS011;65989;51.686;5.138;2023-07-13T02:11:56;15.13;;;3.60;;
77061;SDS011;65989;51.686;5.138;2023-07-13T02:14:22;11.68;;;3.13;;
77061;SDS011;65989;51.686;5.138;2023-07-13T02:16:47;14.03;;;3.60;;
77061;SDS011;65989;51.686;5.138;2023-07-13T02:19:13;16.50;;;3.30;;
77061;SDS011;65989;51.686;5.138;2023-07-13T02:21:38;13.90;;;3.33;;
77061;SDS011;65989;51.686;5.138;2023-07-13T02:24:04;15.67;;;3.40;;
77061;SDS011;65989;51.686;5.138;2023-07-13T02:26:29;14.67;;;3.83;;
77061;SDS011;65989;51.686;5.138;2023-07-13T02:28:54;12.53;;;3.47;;
77061;SDS011;65989;51.686;5.138;2023-07-13T02:31:19;10.77;;;3.67;;
77061;SDS011;65989;51.686;5.138;2023-07-13T02:33:45;15.43;;;3.27;;
77061;SDS011;65989;51.686;5.138;2023-07-13T02:36:11;11.97;;;3.50;;
77061;SDS011;65989;51.686;5.138;2023-07-13T02:38:36;13.05;;;3.72;;
77061;SDS011;65989;51.686;5.138;2023-07-13T02:41:05;12.40;;;3.73;;
77061;SDS011;65989;51.686;5.138;2023-07-13T02:43:31;12.05;;;3.47;;
77061;SDS011;65989;51.686;5.138;2023-07-13T02:45:56;9.87;;;3.50;;
77061;SDS011;65989;51.686;5.138;2023-07-13T02:48:25;15.50;;;3.92;;
77061;SDS011;65989;51.686;5.138;2023-07-13T02:50:50;11.47;;;3.70;;
77061;SDS011;65989;51.686;5.138;2023-07-13T02:53:16;13.23;;;4.00;;
77061;SDS011;65989;51.686;5.138;2023-07-13T02:55:41;13.80;;;4.03;;
77061;SDS011;65989;51.686;5.138;2023-07-13T02:58:12;16.13;;;4.13;;
77061;SDS011;65989;51.686;5.138;2023-07-13T03:00:41;17.33;;;4.13;;
77061;SDS011;65989;51.686;5.138;2023-07-13T03:03:07;16.40;;;4.17;;
77061;SDS011;65989;51.686;5.138;2023-07-13T03:05:32;15.93;;;3.97;;
77061;SDS011;65989;51.686;5.138;2023-07-13T03:07:57;21.43;;;4.37;;
77061;SDS011;65989;51.686;5.138;2023-07-13T03:10:23;18.60;;;4.37;;
77061;SDS011;65989;51.686;5.138;2023-07-13T03:12:48;13.17;;;4.07;;
77061;SDS011;65989;51.686;5.138;2023-07-13T03:15:13;16.57;;;3.83;;
77061;SDS011;65989;51.686;5.138;2023-07-13T03:17:38;12.23;;;4.17;;
77061;SDS011;65989;51.686;5.138;2023-07-13T03:20:04;17.73;;;4.30;;
77061;SDS011;65989;51.686;5.138;2023-07-13T03:22:29;14.53;;;4.27;;
77061;SDS011;65989;51.686;5.138;2023-07-13T03:24:55;18.40;;;4.67;;
77061;SDS011;65989;51.686;5.138;2023-07-13T03:27:20;17.77;;;4.37;;
77061;SDS011;65989;51.686;5.138;2023-07-13T03:29:45;16.03;;;4.37;;
77061;SDS011;65989;51.686;5.138;2023-07-13T03:32:10;14.57;;;4.53;;
77061;SDS011;65989;51.686;5.138;2023-07-13T03:34:36;11.87;;;4.57;;
77061;SDS011;65989;51.686;5.138;2023-07-13T03:37:01;13.50;;;4.50;;
77061;SDS011;65989;51.686;5.138;2023-07-13T03:39:26;16.53;;;4.50;;
77061;SDS011;65989;51.686;5.138;2023-07-13T03:41:52;17.77;;;4.90;;
77061;SDS011;65989;51.686;5.138;2023-07-13T03:44:17;13.37;;;4.57;;
77061;SDS011;65989;51.686;5.138;2023-07-13T03:46:43;16.03;;;4.63;;
77061;SDS011;65989;51.686;5.138;2023-07-13T03:49:08;17.90;;;5.40;;
77061;SDS011;65989;51.686;5.138;2023-07-13T03:51:33;20.53;;;5.13;;
77061;SDS011;65989;51.686;5.138;2023-07-13T03:53:59;15.50;;;4.90;;
77061;SDS011;65989;51.686;5.138;2023-07-13T03:56:24;13.17;;;4.80;;
77061;SDS011;65989;51.686;5.138;2023-07-13T03:58:50;13.80;;;5.07;;
77061;SDS011;65989;51.686;5.138;2023-07-13T04:01:16;18.80;;;5.82;;
77061;SDS011;65989;51.686;5.138;2023-07-13T04:03:42;18.73;;;5.55;;
77061;SDS011;65989;51.686;5.138;2023-07-13T04:06:16;17.83;;;5.53;;
77061;SDS011;65989;51.686;5.138;2023-07-13T04:08:46;23.17;;;5.95;;
77061;SDS011;65989;51.686;5.138;2023-07-13T04:11:11;16.40;;;4.78;;
77061;SDS011;65989;51.686;5.138;2023-07-13T04:13:36;23.30;;;5.80;;
77061;SDS011;65989;51.686;5.138;2023-07-13T04:16:02;17.60;;;6.10;;
77061;SDS011;65989;51.686;5.138;2023-07-13T04:18:27;16.17;;;5.23;;
77061;SDS011;65989;51.686;5.138;2023-07-13T04:20:52;22.70;;;5.93;;
77061;SDS011;65989;51.686;5.138;2023-07-13T04:23:17;19.87;;;5.63;;
77061;SDS011;65989;51.686;5.138;2023-07-13T04:25:46;18.05;;;6.15;;
77061;SDS011;65989;51.686;5.138;2023-07-13T04:28:14;17.87;;;5.63;;
77061;SDS011;65989;51.686;5.138;2023-07-13T04:30:39;17.58;;;5.50;;
77061;SDS011;65989;51.686;5.138;2023-07-13T04:33:04;18.23;;;6.07;;
77061;SDS011;65989;51.686;5.138;2023-07-13T04:35:30;21.53;;;5.70;;
77061;SDS011;65989;51.686;5.138;2023-07-13T04:37:56;18.70;;;5.85;;
77061;SDS011;65989;51.686;5.138;2023-07-13T04:40:21;21.10;;;6.20;;
77061;SDS011;65989;51.686;5.138;2023-07-13T04:42:47;19.97;;;6.00;;
77061;SDS011;65989;51.686;5.138;2023-07-13T04:45:13;18.73;;;5.97;;
77061;SDS011;65989;51.686;5.138;2023-07-13T04:47:38;21.00;;;6.13;;
77061;SDS011;65989;51.686;5.138;2023-07-13T04:50:04;20.10;;;6.70;;
77061;SDS011;65989;51.686;5.138;2023-07-13T04:52:29;17.90;;;6.33;;
77061;SDS011;65989;51.686;5.138;2023-07-13T04:54:55;17.25;;;6.20;;
77061;SDS011;65989;51.686;5.138;2023-07-13T04:57:20;22.57;;;6.40;;
77061;SDS011;65989;51.686;5.138;2023-07-13T04:59:45;20.50;;;6.40;;
77061;SDS011;65989;51.686;5.138;2023-07-13T05:02:10;20.13;;;6.97;;
77061;SDS011;65989;51.686;5.138;2023-07-13T05:04:36;19.30;;;6.80;;
77061;SDS011;65989;51.686;5.138;2023-07-13T05:07:01;21.73;;;7.20;;
77061;SDS011;65989;51.686;5.138;2023-07-13T05:09:26;17.83;;;6.63;;
77061;SDS011;65989;51.686;5.138;2023-07-13T05:11:51;20.00;;;7.03;;
77061;SDS011;65989;51.686;5.138;2023-07-13T05:14:17;23.47;;;7.07;;
77061;SDS011;65989;51.686;5.138;2023-07-13T05:16:42;25.07;;;7.53;;
77061;SDS011;65989;51.686;5.138;2023-07-13T05:19:07;21.33;;;6.70;;
77061;SDS011;65989;51.686;5.138;2023-07-13T05:21:33;19.70;;;6.97;;
77061;SDS011;65989;51.686;5.138;2023-07-13T05:23:58;22.23;;;6.80;;
77061;SDS011;65989;51.686;5.138;2023-07-13T05:26:23;24.83;;;7.03;;
77061;SDS011;65989;51.686;5.138;2023-07-13T05:28:48;18.77;;;6.90;;
77061;SDS011;65989;51.686;5.138;2023-07-13T05:31:14;17.73;;;6.13;;
77061;SDS011;65989;51.686;5.138;2023-07-13T05:33:39;17.53;;;6.30;;
77061;SDS011;65989;51.686;5.138;2023-07-13T05:36:04;17.57;;;6.80;;
77061;SDS011;65989;51.686;5.138;2023-07-13T05:38:30;16.03;;;6.53;;
77061;SDS011;65989;51.686;5.138;2023-07-13T05:40:55;22.90;;;6.63;;
77061;SDS011;65989;51.686;5.138;2023-07-13T05:43:21;15.20;;;6.10;;
77061;SDS011;65989;51.686;5.138;2023-07-13T05:45:47;22.48;;;6.93;;
77061;SDS011;65989;51.686;5.138;2023-07-13T05:48:12;19.97;;;7.17;;
77061;SDS011;65989;51.686;5.138;2023-07-13T05:50:38;18.37;;;7.63;;
77061;SDS011;65989;51.686;5.138;2023-07-13T05:53:03;15.73;;;6.97;;
77061;SDS011;65989;51.686;5.138;2023-07-13T05:55:29;20.25;;;6.78;;
77061;SDS011;65989;51.686;5.138;2023-07-13T05:57:54;19.33;;;7.40;;
77061;SDS011;65989;51.686;5.138;2023-07-13T06:00:19;18.50;;;6.73;;
77061;SDS011;65989;51.686;5.138;2023-07-13T06:02:45;17.73;;;7.27;;
77061;SDS011;65989;51.686;5.138;2023-07-13T06:05:10;22.87;;;7.33;;
77061;SDS011;65989;51.686;5.138;2023-07-13T06:07:35;24.08;;;7.47;;
77061;SDS011;65989;51.686;5.138;2023-07-13T06:10:01;25.90;;;8.40;;
77061;SDS011;65989;51.686;5.138;2023-07-13T06:12:26;22.23;;;7.80;;
77061;SDS011;65989;51.686;5.138;2023-07-13T06:14:51;27.03;;;8.20;;
77061;SDS011;65989;51.686;5.138;2023-07-13T06:17:17;23.00;;;8.97;;
77061;SDS011;65989;51.686;5.138;2023-07-13T06:19:42;24.40;;;9.48;;
77061;SDS011;65989;51.686;5.138;2023-07-13T06:22:08;19.93;;;8.80;;
77061;SDS011;65989;51.686;5.138;2023-07-13T06:24:33;24.37;;;9.20;;
77061;SDS011;65989;51.686;5.138;2023-07-13T06:26:58;26.60;;;10.90;;
77061;SDS011;65989;51.686;5.138;2023-07-13T06:29:23;21.40;;;10.03;;
77061;SDS011;65989;51.686;5.138;2023-07-13T06:31:49;24.47;;;10.60;;
77061;SDS011;65989;51.686;5.138;2023-07-13T06:34:14;26.37;;;10.60;;
77061;SDS011;65989;51.686;5.138;2023-07-13T06:36:39;22.00;;;9.97;;
77061;SDS011;65989;51.686;5.138;2023-07-13T06:39:05;24.50;;;9.33;;
77061;SDS011;65989;51.686;5.138;2023-07-13T06:41:31;29.95;;;10.18;;
77061;SDS011;65989;51.686;5.138;2023-07-13T06:43:57;26.73;;;9.90;;
77061;SDS011;65989;51.686;5.138;2023-07-13T06:46:22;22.17;;;9.93;;
77061;SDS011;65989;51.686;5.138;2023-07-13T06:48:48;23.03;;;10.20;;
77061;SDS011;65989;51.686;5.138;2023-07-13T06:51:13;22.67;;;10.77;;
77061;SDS011;65989;51.686;5.138;2023-07-13T06:53:39;26.67;;;10.05;;
77061;SDS011;65989;51.686;5.138;2023-07-13T06:56:04;28.63;;;10.50;;
77061;SDS011;65989;51.686;5.138;2023-07-13T06:58:30;27.20;;;10.15;;
77061;SDS011;65989;51.686;5.138;2023-07-13T07:00:55;21.17;;;10.00;;
77061;SDS011;65989;51.686;5.138;2023-07-13T07:03:20;27.30;;;9.67;;
77061;SDS011;65989;51.686;5.138;2023-07-13T07:05:46;22.43;;;9.23;;
77061;SDS011;65989;51.686;5.138;2023-07-13T07:08:11;23.70;;;8.50;;
77061;SDS011;65989;51.686;5.138;2023-07-13T07:10:36;21.83;;;8.60;;
77061;SDS011;65989;51.686;5.138;2023-07-13T07:13:02;21.13;;;8.83;;
77061;SDS011;65989;51.686;5.138;2023-07-13T07:15:27;21.23;;;8.43;;
77061;SDS011;65989;51.686;5.138;2023-07-13T07:17:53;22.10;;;9.30;;
77061;SDS011;65989;51.686;5.138;2023-07-13T07:20:18;50.40;;;9.53;;
77061;SDS011;65989;51.686;5.138;2023-07-13T07:22:43;23.17;;;9.10;;
77061;SDS011;65989;51.686;5.138;2023-07-13T07:25:08;20.97;;;8.20;;
77061;SDS011;65989;51.686;5.138;2023-07-13T07:27:34;23.37;;;8.77;;
77061;SDS011;65989;51.686;5.138;2023-07-13T07:29:59;15.27;;;7.57;;
77061;SDS011;65989;51.686;5.138;2023-07-13T07:32:24;16.60;;;8.30;;
77061;SDS011;65989;51.686;5.138;2023-07-13T07:34:50;18.17;;;8.37;;
77061;SDS011;65989;51.686;5.138;2023-07-13T07:37:15;25.17;;;8.97;;
77061;SDS011;65989;51.686;5.138;2023-07-13T07:39:40;16.67;;;7.83;;
77061;SDS011;65989;51.686;5.138;2023-07-13T07:42:07;16.77;;;6.97;;
77061;SDS011;65989;51.686;5.138;2023-07-13T07:44:32;19.00;;;7.40;;
77061;SDS011;65989;51.686;5.138;2023-07-13T07:46:58;18.90;;;7.00;;
77061;SDS011;65989;51.686;5.138;2023-07-13T07:49:23;13.73;;;6.17;;
77061;SDS011;65989;51.686;5.138;2023-07-13T07:51:48;16.33;;;6.13;;
77061;SDS011;65989;51.686;5.138;2023-07-13T07:54:14;15.23;;;6.10;;
77061;SDS011;65989;51.686;5.138;2023-07-13T07:56:39;15.53;;;6.30;;
77061;SDS011;65989;51.686;5.138;2023-07-13T07:59:05;18.47;;;5.67;;
77061;SDS011;65989;51.686;5.138;2023-07-13T08:01:30;16.47;;;6.33;;
77061;SDS011;65989;51.686;5.138;2023-07-13T08:03:55;15.03;;;5.63;;
77061;SDS011;65989;51.686;5.138;2023-07-13T08:06:21;15.05;;;5.22;;
77061;SDS011;65989;51.686;5.138;2023-07-13T08:08:47;18.63;;;5.20;;
77061;SDS011;65989;51.686;5.138;2023-07-13T08:11:12;16.98;;;5.03;;
77061;SDS011;65989;51.686;5.138;2023-07-13T08:13:37;13.20;;;4.60;;
77061;SDS011;65989;51.686;5.138;2023-07-13T08:16:04;16.00;;;5.37;;
77061;SDS011;65989;51.686;5.138;2023-07-13T08:18:29;15.83;;;4.90;;
77061;SDS011;65989;51.686;5.138;2023-07-13T08:20:54;14.50;;;4.78;;
77061;SDS011;65989;51.686;5.138;2023-07-13T08:23:23;15.13;;;4.70;;
77061;SDS011;65989;51.686;5.138;2023-07-13T08:25:52;12.37;;;4.40;;
77061;SDS011;65989;51.686;5.138;2023-07-13T08:28:18;14.63;;;3.90;;
77061;SDS011;65989;51.686;5.138;2023-07-13T08:30:44;12.55;;;4.03;;
77061;SDS011;65989;51.686;5.138;2023-07-13T08:33:09;12.23;;;3.93;;
77061;SDS011;65989;51.686;5.138;2023-07-13T08:35:34;15.53;;;4.17;;
77061;SDS011;65989;51.686;5.138;2023-07-13T08:37:59;9.07;;;3.50;;
77061;SDS011;65989;51.686;5.138;2023-07-13T08:40:31;10.37;;;3.20;;
77061;SDS011;65989;51.686;5.138;2023-07-13T08:43:04;11.80;;;3.60;;
77061;SDS011;65989;51.686;5.138;2023-07-13T08:47:57;11.10;;;3.30;;
77061;SDS011;65989;51.686;5.138;2023-07-13T08:50:26;10.90;;;3.38;;
77061;SDS011;65989;51.686;5.138;2023-07-13T08:52:53;13.98;;;3.60;;
77061;SDS011;65989;51.686;5.138;2023-07-13T08:55:21;11.90;;;3.55;;
77061;SDS011;65989;51.686;5.138;2023-07-13T08:57:48;10.43;;;3.42;;
77061;SDS011;65989;51.686;5.138;2023-07-13T09:00:16;11.23;;;3.43;;
77061;SDS011;65989;51.686;5.138;2023-07-13T09:02:45;10.40;;;3.60;;
77061;SDS011;65989;51.686;5.138;2023-07-13T09:05:12;10.70;;;3.50;;
77061;SDS011;65989;51.686;5.138;2023-07-13T09:10:20;10.52;;;3.50;;
77061;SDS011;65989;51.686;5.138;2023-07-13T09:15:35;9.33;;;3.30;;
77061;SDS011;65989;51.686;5.138;2023-07-13T09:18:03;13.40;;;3.20;;
77061;SDS011;65989;51.686;5.138;2023-07-13T09:20:31;9.63;;;2.95;;
77061;SDS011;65989;51.686;5.138;2023-07-13T09:22:59;9.00;;;2.90;;
77061;SDS011;65989;51.686;5.138;2023-07-13T09:27:56;10.80;;;3.50;;
77061;SDS011;65989;51.686;5.138;2023-07-13T09:30:43;10.55;;;3.15;;
77061;SDS011;65989;51.686;5.138;2023-07-13T09:33:09;12.27;;;3.70;;
77061;SDS011;65989;51.686;5.138;2023-07-13T09:35:35;12.50;;;3.73;;
77061;SDS011;65989;51.686;5.138;2023-07-13T09:38:13;10.50;;;3.33;;
77061;SDS011;65989;51.686;5.138;2023-07-13T09:43:17;10.55;;;3.35;;
77061;SDS011;65989;51.686;5.138;2023-07-13T09:45:46;12.10;;;3.30;;
77061;SDS011;65989;51.686;5.138;2023-07-13T09:48:13;12.30;;;3.10;;
77061;SDS011;65989;51.686;5.138;2023-07-13T09:50:38;8.10;;;2.85;;
77061;SDS011;65989;51.686;5.138;2023-07-13T09:53:04;10.87;;;2.97;;
77061;SDS011;65989;51.686;5.138;2023-07-13T09:55:39;11.90;;;2.60;;
77061;SDS011;65989;51.686;5.138;2023-07-13T09:58:15;9.55;;;2.90;;
77061;SDS011;65989;51.686;5.138;2023-07-13T10:00:42;9.25;;;2.90;;
77061;SDS011;65989;51.686;5.138;2023-07-13T10:03:18;10.85;;;2.85;;
77061;SDS011;65989;51.686;5.138;2023-07-13T10:05:45;8.97;;;2.80;;
77061;SDS011;65989;51.686;5.138;2023-07-13T10:08:16;10.75;;;3.10;;
77061;SDS011;65989;51.686;5.138;2023-07-13T10:10:43;9.45;;;3.13;;
77061;SDS011;65989;51.686;5.138;2023-07-13T10:13:28;9.25;;;2.80;;
77061;SDS011;65989;51.686;5.138;2023-07-13T10:15:55;10.68;;;2.90;;
77061;SDS011;65989;51.686;5.138;2023-07-13T10:18:21;9.10;;;2.73;;
77061;SDS011;65989;51.686;5.138;2023-07-13T10:20:47;9.55;;;3.00;;
77061;SDS011;65989;51.686;5.138;2023-07-13T10:23:14;10.70;;;2.90;;
77061;SDS011;65989;51.686;5.138;2023-07-13T10:25:42;8.50;;;2.63;;
77061;SDS011;65989;51.686;5.138;2023-07-13T10:30:42;11.55;;;2.85;;
77061;SDS011;65989;51.686;5.138;2023-07-13T10:33:12;11.77;;;3.42;;
77061;SDS011;65989;51.686;5.138;2023-07-13T10:35:37;12.37;;;3.60;;
77061;SDS011;65989;51.686;5.138;2023-07-13T10:38:07;12.65;;;3.40;;
77061;SDS011;65989;51.686;5.138;2023-07-13T10:40:48;12.60;;;3.55;;
77061;SDS011;65989;51.686;5.138;2023-07-13T10:43:17;10.30;;;3.53;;
77061;SDS011;65989;51.686;5.138;2023-07-13T10:45:43;10.07;;;3.03;;
77061;SDS011;65989;51.686;5.138;2023-07-13T10:48:11;8.00;;;3.17;;
77061;SDS011;65989;51.686;5.138;2023-07-13T10:50:37;8.35;;;2.88;;
77061;SDS011;65989;51.686;5.138;2023-07-13T10:53:18;11.45;;;3.35;;
77061;SDS011;65989;51.686;5.138;2023-07-13T11:03:28;8.67;;;3.00;;
77061;SDS011;65989;51.686;5.138;2023-07-13T11:06:17;9.00;;;3.00;;
77061;SDS011;65989;51.686;5.138;2023-07-13T11:14:04;8.43;;;3.20;;
77061;SDS011;65989;51.686;5.138;2023-07-13T11:16:45;8.37;;;3.07;;
77061;SDS011;65989;51.686;5.138;2023-07-13T11:24:28;9.45;;;3.00;;
77061;SDS011;65989;51.686;5.138;2023-07-13T11:26:55;6.90;;;2.80;;
77061;SDS011;65989;51.686;5.138;2023-07-13T11:31:52;8.17;;;2.60;;
77061;SDS011;65989;51.686;5.138;2023-07-13T11:34:21;7.18;;;2.50;;
77061;SDS011;65989;51.686;5.138;2023-07-13T11:36:48;5.53;;;2.20;;
77061;SDS011;65989;51.686;5.138;2023-07-13T11:41:43;6.22;;;2.40;;
77061;SDS011;65989;51.686;5.138;2023-07-13T11:44:13;6.10;;;2.30;;
77061;SDS011;65989;51.686;5.138;2023-07-13T11:46:43;5.57;;;2.53;;
77061;SDS011;65989;51.686;5.138;2023-07-13T11:49:11;7.78;;;2.80;;
77061;SDS011;65989;51.686;5.138;2023-07-13T11:51:38;5.95;;;2.75;;
77061;SDS011;65989;51.686;5.138;2023-07-13T11:54:05;8.97;;;2.90;;
77061;SDS011;65989;51.686;5.138;2023-07-13T11:56:32;6.95;;;2.35;;
77061;SDS011;65989;51.686;5.138;2023-07-13T11:59:03;6.07;;;2.47;;
77061;SDS011;65989;51.686;5.138;2023-07-13T12:01:30;8.85;;;2.50;;
77061;SDS011;65989;51.686;5.138;2023-07-13T12:03:57;9.57;;;2.57;;
77061;SDS011;65989;51.686;5.138;2023-07-13T12:06:31;6.90;;;2.10;;
77061;SDS011;65989;51.686;5.138;2023-07-13T12:08:57;5.78;;;2.20;;
77061;SDS011;65989;51.686;5.138;2023-07-13T12:11:23;8.75;;;2.40;;
77061;SDS011;65989;51.686;5.138;2023-07-13T12:13:48;6.53;;;2.33;;
77061;SDS011;65989;51.686;5.138;2023-07-13T12:16:21;6.25;;;2.20;;
77061;SDS011;65989;51.686;5.138;2023-07-13T12:18:48;5.43;;;2.20;;
77061;SDS011;65989;51.686;5.138;2023-07-13T12:21:16;8.05;;;2.60;;
77061;SDS011;65989;51.686;5.138;2023-07-13T12:23:43;5.07;;;2.30;;
77061;SDS011;65989;51.686;5.138;2023-07-13T12:26:09;10.37;;;2.43;;
77061;SDS011;65989;51.686;5.138;2023-07-13T12:31:02;6.85;;;2.30;;
77061;SDS011;65989;51.686;5.138;2023-07-13T12:33:28;6.60;;;2.10;;
77061;SDS011;65989;51.686;5.138;2023-07-13T12:35:54;4.95;;;2.20;;
77061;SDS011;65989;51.686;5.138;2023-07-13T12:38:20;6.50;;;2.60;;
77061;SDS011;65989;51.686;5.138;2023-07-13T12:40:48;6.18;;;2.78;;
77061;SDS011;65989;51.686;5.138;2023-07-13T12:43:14;5.78;;;2.60;;
77061;SDS011;65989;51.686;5.138;2023-07-13T12:45:54;8.90;;;2.50;;
77061;SDS011;65989;51.686;5.138;2023-07-13T12:48:20;5.30;;;2.40;;
77061;SDS011;65989;51.686;5.138;2023-07-13T12:50:46;7.77;;;2.30;;
77061;SDS011;65989;51.686;5.138;2023-07-13T12:53:16;6.60;;;2.45;;
77061;SDS011;65989;51.686;5.138;2023-07-13T12:56:04;5.75;;;2.30;;
77061;SDS011;65989;51.686;5.138;2023-07-13T12:58:29;6.22;;;2.40;;
77061;SDS011;65989;51.686;5.138;2023-07-13T13:00:56;9.10;;;2.50;;
77061;SDS011;65989;51.686;5.138;2023-07-13T13:05:47;4.97;;;2.00;;
77061;SDS011;65989;51.686;5.138;2023-07-13T13:08:12;5.87;;;2.23;;
77061;SDS011;65989;51.686;5.138;2023-07-13T13:10:38;6.10;;;2.45;;
77061;SDS011;65989;51.686;5.138;2023-07-13T13:13:04;6.93;;;2.27;;
77061;SDS011;65989;51.686;5.138;2023-07-13T13:15:29;5.35;;;2.10;;
77061;SDS011;65989;51.686;5.138;2023-07-13T13:17:55;5.10;;;1.93;;
77061;SDS011;65989;51.686;5.138;2023-07-13T13:20:21;6.68;;;2.00;;
77061;SDS011;65989;51.686;5.138;2023-07-13T13:22:46;6.17;;;1.93;;
77061;SDS011;65989;51.686;5.138;2023-07-13T13:25:12;5.28;;;1.80;;
77061;SDS011;65989;51.686;5.138;2023-07-13T13:27:39;8.88;;;1.90;;
77061;SDS011;65989;51.686;5.138;2023-07-13T13:30:10;5.18;;;2.05;;
77061;SDS011;65989;51.686;5.138;2023-07-13T13:32:35;7.07;;;2.47;;
77061;SDS011;65989;51.686;5.138;2023-07-13T13:35:00;8.60;;;2.70;;
77061;SDS011;65989;51.686;5.138;2023-07-13T13:37:26;6.95;;;2.55;;
77061;SDS011;65989;51.686;5.138;2023-07-13T13:39:51;11.23;;;2.77;;
77061;SDS011;65989;51.686;5.138;2023-07-13T13:42:18;10.77;;;3.10;;
77061;SDS011;65989;51.686;5.138;2023-07-13T13:44:46;8.53;;;3.07;;
77061;SDS011;65989;51.686;5.138;2023-07-13T13:49:42;7.68;;;2.58;;
77061;SDS011;65989;51.686;5.138;2023-07-13T13:52:08;7.43;;;2.73;;
77061;SDS011;65989;51.686;5.138;2023-07-13T13:54:34;7.30;;;2.70;;
77061;SDS011;65989;51.686;5.138;2023-07-13T13:57:02;10.13;;;2.73;;
77061;SDS011;65989;51.686;5.138;2023-07-13T13:59:27;9.13;;;2.78;;
77061;SDS011;65989;51.686;5.138;2023-07-13T14:01:52;8.10;;;2.57;;
77061;SDS011;65989;51.686;5.138;2023-07-13T14:04:18;7.07;;;2.20;;
77061;SDS011;65989;51.686;5.138;2023-07-13T14:06:44;7.55;;;2.42;;
77061;SDS011;65989;51.686;5.138;2023-07-13T14:09:10;8.80;;;2.70;;
77061;SDS011;65989;51.686;5.138;2023-07-13T14:11:36;7.87;;;2.40;;
77061;SDS011;65989;51.686;5.138;2023-07-13T14:14:02;8.05;;;2.40;;
77061;SDS011;65989;51.686;5.138;2023-07-13T14:16:29;6.15;;;2.40;;
77061;SDS011;65989;51.686;5.138;2023-07-13T14:18:56;8.87;;;2.50;;
77061;SDS011;65989;51.686;5.138;2023-07-13T14:21:25;7.50;;;2.55;;
77061;SDS011;65989;51.686;5.138;2023-07-13T14:23:50;7.22;;;2.38;;
77061;SDS011;65989;51.686;5.138;2023-07-13T14:26:17;7.00;;;2.37;;
77061;SDS011;65989;51.686;5.138;2023-07-13T14:28:45;6.00;;;2.50;;
77061;SDS011;65989;51.686;5.138;2023-07-13T14:31:11;6.13;;;2.60;;
77061;SDS011;65989;51.686;5.138;2023-07-13T14:33:37;8.00;;;2.67;;
77061;SDS011;65989;51.686;5.138;2023-07-13T14:36:03;6.67;;;2.60;;
77061;SDS011;65989;51.686;5.138;2023-07-13T14:38:30;6.20;;;2.25;;
77061;SDS011;65989;51.686;5.138;2023-07-13T14:40:56;6.33;;;2.33;;
77061;SDS011;65989;51.686;5.138;2023-07-13T14:43:24;8.47;;;2.57;;
77061;SDS011;65989;51.686;5.138;2023-07-13T14:45:53;7.37;;;2.30;;
77061;SDS011;65989;51.686;5.138;2023-07-13T14:48:21;5.95;;;2.30;;
77061;SDS011;65989;51.686;5.138;2023-07-13T14:50:49;6.68;;;2.00;;
77061;SDS011;65989;51.686;5.138;2023-07-13T14:53:15;6.57;;;2.20;;
77061;SDS011;65989;51.686;5.138;2023-07-13T14:55:41;7.67;;;2.30;;
77061;SDS011;65989;51.686;5.138;2023-07-13T14:58:07;7.47;;;2.40;;
77061;SDS011;65989;51.686;5.138;2023-07-13T15:00:32;7.03;;;2.37;;
77061;SDS011;65989;51.686;5.138;2023-07-13T15:02:58;5.37;;;2.10;;
77061;SDS011;65989;51.686;5.138;2023-07-13T15:05:27;5.10;;;2.00;;
77061;SDS011;65989;51.686;5.138;2023-07-13T15:07:56;8.20;;;2.20;;
77061;SDS011;65989;51.686;5.138;2023-07-13T15:10:25;5.10;;;2.10;;
77061;SDS011;65989;51.686;5.138;2023-07-13T15:12:51;5.72;;;2.15;;
77061;SDS011;65989;51.686;5.138;2023-07-13T15:15:16;6.15;;;2.17;;
77061;SDS011;65989;51.686;5.138;2023-07-13T15:17:45;6.10;;;2.00;;
77061;SDS011;65989;51.686;5.138;2023-07-13T15:20:26;7.20;;;2.10;;
77061;SDS011;65989;51.686;5.138;2023-07-13T15:22:52;7.25;;;1.80;;